sensor_id;sensor_type;location;lat;lon;timestamp;P1;durP1;ratioP1;P2;durP2;ratioP2
4638;SDS011;2332;38.646;-9.154;2022-08-19T00:00:23;6.20;;;3.10;;
4638;SDS011;2332;38.646;-9.154;2022-08-19T00:02:49;5.90;;;3.23;;
4638;SDS011;2332;38.646;-9.154;2022-08-19T00:05:14;8.23;;;2.73;;
4638;SDS011;2332;38.646;-9.154;2022-08-19T00:07:41;5.30;;;2.90;;
4638;SDS011;2332;38.646;-9.154;2022-08-19T00:10:08;13.60;;;4.40;;
4638;SDS011;2332;38.646;-9.154;2022-08-19T00:12:35;6.20;;;3.20;;
4638;SDS011;2332;38.646;-9.154;2022-08-19T00:15:03;6.40;;;3.27;;
4638;SDS011;2332;38.646;-9.154;2022-08-19T00:17:30;7.20;;;3.60;;
4638;SDS011;2332;38.646;-9.154;2022-08-19T00:19:55;3.53;;;2.57;;
4638;SDS011;2332;38.646;-9.154;2022-08-19T00:22:21;9.03;;;3.17;;
4638;SDS011;2332;38.646;-9.154;2022-08-19T00:24:46;9.50;;;3.10;;
4638;SDS011;2332;38.646;-9.154;2022-08-19T00:27:13;4.90;;;2.80;;
4638;SDS011;2332;38.646;-9.154;2022-08-19T00:29:38;4.80;;;3.40;;
4638;SDS011;2332;38.646;-9.154;2022-08-19T00:32:05;5.63;;;3.30;;
4638;SDS011;2332;38.646;-9.154;2022-08-19T00:34:31;6.60;;;3.80;;
4638;SDS011;2332;38.646;-9.154;2022-08-19T00:36:57;6.73;;;3.63;;
4638;SDS011;2332;38.646;-9.154;2022-08-19T00:39:24;9.07;;;3.33;;
4638;SDS011;2332;38.646;-9.154;2022-08-19T00:41:50;8.90;;;3.67;;
4638;SDS011;2332;38.646;-9.154;2022-08-19T00:44:21;7.03;;;3.87;;
4638;SDS011;2332;38.646;-9.154;2022-08-19T00:46:48;6.50;;;3.40;;
4638;SDS011;2332;38.646;-9.154;2022-08-19T00:51:50;5.73;;;3.60;;
4638;SDS011;2332;38.646;-9.154;2022-08-19T00:54:18;9.07;;;3.63;;
4638;SDS011;2332;38.646;-9.154;2022-08-19T00:56:44;6.80;;;3.97;;
4638;SDS011;2332;38.646;-9.154;2022-08-19T00:59:10;8.77;;;3.83;;
4638;SDS011;2332;38.646;-9.154;2022-08-19T01:01:39;8.77;;;4.23;;
4638;SDS011;2332;38.646;-9.154;2022-08-19T01:04:06;8.10;;;3.80;;
4638;SDS011;2332;38.646;-9.154;2022-08-19T01:06:32;7.40;;;4.27;;
4638;SDS011;2332;38.646;-9.154;2022-08-19T01:08:59;6.27;;;4.20;;
4638;SDS011;2332;38.646;-9.154;2022-08-19T01:11:26;4.50;;;3.03;;
4638;SDS011;2332;38.646;-9.154;2022-08-19T01:13:52;11.90;;;4.50;;
4638;SDS011;2332;38.646;-9.154;2022-08-19T01:16:19;6.20;;;4.37;;
4638;SDS011;2332;38.646;-9.154;2022-08-19T01:18:47;9.00;;;4.13;;
4638;SDS011;2332;38.646;-9.154;2022-08-19T01:21:25;7.53;;;3.77;;
4638;SDS011;2332;38.646;-9.154;2022-08-19T01:23:55;6.93;;;4.07;;
4638;SDS011;2332;38.646;-9.154;2022-08-19T01:26:22;6.73;;;3.93;;
4638;SDS011;2332;38.646;-9.154;2022-08-19T01:28:50;7.40;;;3.83;;
4638;SDS011;2332;38.646;-9.154;2022-08-19T01:31:19;10.70;;;4.20;;
4638;SDS011;2332;38.646;-9.154;2022-08-19T01:33:47;9.47;;;3.63;;
4638;SDS011;2332;38.646;-9.154;2022-08-19T01:36:15;8.03;;;3.93;;
4638;SDS011;2332;38.646;-9.154;2022-08-19T01:38:47;9.33;;;4.57;;
4638;SDS011;2332;38.646;-9.154;2022-08-19T01:41:13;10.03;;;4.40;;
4638;SDS011;2332;38.646;-9.154;2022-08-19T01:43:39;8.27;;;4.13;;
4638;SDS011;2332;38.646;-9.154;2022-08-19T01:46:05;9.67;;;4.17;;
4638;SDS011;2332;38.646;-9.154;2022-08-19T01:48:37;7.93;;;4.30;;
4638;SDS011;2332;38.646;-9.154;2022-08-19T01:51:05;6.80;;;4.00;;
4638;SDS011;2332;38.646;-9.154;2022-08-19T01:53:31;8.60;;;3.80;;
4638;SDS011;2332;38.646;-9.154;2022-08-19T01:55:57;8.13;;;3.80;;
4638;SDS011;2332;38.646;-9.154;2022-08-19T01:58:25;14.23;;;4.73;;
4638;SDS011;2332;38.646;-9.154;2022-08-19T02:00:55;11.77;;;4.67;;
4638;SDS011;2332;38.646;-9.154;2022-08-19T02:03:21;9.93;;;4.50;;
4638;SDS011;2332;38.646;-9.154;2022-08-19T02:05:47;9.10;;;4.90;;
4638;SDS011;2332;38.646;-9.154;2022-08-19T02:08:18;6.43;;;4.27;;
4638;SDS011;2332;38.646;-9.154;2022-08-19T02:10:43;8.37;;;4.57;;
4638;SDS011;2332;38.646;-9.154;2022-08-19T02:13:10;9.27;;;4.60;;
4638;SDS011;2332;38.646;-9.154;2022-08-19T02:15:36;12.60;;;5.23;;
4638;SDS011;2332;38.646;-9.154;2022-08-19T02:18:02;14.53;;;5.40;;
4638;SDS011;2332;38.646;-9.154;2022-08-19T02:20:28;9.03;;;4.93;;
4638;SDS011;2332;38.646;-9.154;2022-08-19T02:22:54;10.13;;;5.70;;
4638;SDS011;2332;38.646;-9.154;2022-08-19T02:25:19;10.60;;;5.90;;
4638;SDS011;2332;38.646;-9.154;2022-08-19T02:27:45;10.30;;;5.53;;
4638;SDS011;2332;38.646;-9.154;2022-08-19T02:30:12;10.47;;;5.80;;
4638;SDS011;2332;38.646;-9.154;2022-08-19T02:32:40;17.40;;;5.97;;
4638;SDS011;2332;38.646;-9.154;2022-08-19T02:35:06;14.70;;;6.27;;
4638;SDS011;2332;38.646;-9.154;2022-08-19T02:37:32;17.03;;;6.00;;
4638;SDS011;2332;38.646;-9.154;2022-08-19T02:40:16;11.23;;;5.33;;
4638;SDS011;2332;38.646;-9.154;2022-08-19T02:42:43;12.70;;;6.53;;
4638;SDS011;2332;38.646;-9.154;2022-08-19T02:45:09;13.03;;;5.83;;
4638;SDS011;2332;38.646;-9.154;2022-08-19T02:47:34;14.30;;;6.23;;
4638;SDS011;2332;38.646;-9.154;2022-08-19T02:50:01;13.03;;;5.70;;
4638;SDS011;2332;38.646;-9.154;2022-08-19T02:52:27;12.43;;;5.53;;
4638;SDS011;2332;38.646;-9.154;2022-08-19T02:54:53;12.23;;;6.13;;
4638;SDS011;2332;38.646;-9.154;2022-08-19T02:57:21;13.50;;;5.77;;
4638;SDS011;2332;38.646;-9.154;2022-08-19T02:59:47;13.70;;;6.10;;
4638;SDS011;2332;38.646;-9.154;2022-08-19T03:02:13;11.83;;;5.60;;
4638;SDS011;2332;38.646;-9.154;2022-08-19T03:04:38;15.10;;;6.40;;
4638;SDS011;2332;38.646;-9.154;2022-08-19T03:07:04;10.10;;;5.50;;
4638;SDS011;2332;38.646;-9.154;2022-08-19T03:09:30;24.40;;;6.37;;
4638;SDS011;2332;38.646;-9.154;2022-08-19T03:11:55;13.17;;;5.90;;
4638;SDS011;2332;38.646;-9.154;2022-08-19T03:14:21;13.63;;;6.00;;
4638;SDS011;2332;38.646;-9.154;2022-08-19T03:16:51;10.47;;;5.60;;
4638;SDS011;2332;38.646;-9.154;2022-08-19T03:19:18;15.17;;;5.77;;
4638;SDS011;2332;38.646;-9.154;2022-08-19T03:21:46;15.67;;;5.80;;
4638;SDS011;2332;38.646;-9.154;2022-08-19T03:24:12;11.57;;;5.73;;
4638;SDS011;2332;38.646;-9.154;2022-08-19T03:26:41;12.90;;;5.40;;
4638;SDS011;2332;38.646;-9.154;2022-08-19T03:29:08;21.17;;;4.50;;
4638;SDS011;2332;38.646;-9.154;2022-08-19T03:31:36;12.03;;;5.63;;
4638;SDS011;2332;38.646;-9.154;2022-08-19T03:34:03;12.03;;;4.90;;
4638;SDS011;2332;38.646;-9.154;2022-08-19T03:36:28;7.70;;;4.90;;
4638;SDS011;2332;38.646;-9.154;2022-08-19T03:38:55;16.93;;;5.60;;
4638;SDS011;2332;38.646;-9.154;2022-08-19T03:41:24;13.90;;;5.23;;
4638;SDS011;2332;38.646;-9.154;2022-08-19T03:43:52;16.17;;;5.50;;
4638;SDS011;2332;38.646;-9.154;2022-08-19T03:46:19;10.00;;;5.53;;
4638;SDS011;2332;38.646;-9.154;2022-08-19T03:48:47;12.13;;;5.80;;
4638;SDS011;2332;38.646;-9.154;2022-08-19T03:51:18;9.93;;;5.10;;
4638;SDS011;2332;38.646;-9.154;2022-08-19T03:53:45;13.03;;;6.17;;
4638;SDS011;2332;38.646;-9.154;2022-08-19T03:56:11;11.03;;;5.67;;
4638;SDS011;2332;38.646;-9.154;2022-08-19T03:58:38;11.80;;;5.80;;
4638;SDS011;2332;38.646;-9.154;2022-08-19T04:01:08;13.07;;;5.77;;
4638;SDS011;2332;38.646;-9.154;2022-08-19T04:03:35;17.97;;;6.43;;
4638;SDS011;2332;38.646;-9.154;2022-08-19T04:06:15;14.03;;;6.33;;
4638;SDS011;2332;38.646;-9.154;2022-08-19T04:08:43;16.23;;;7.00;;
4638;SDS011;2332;38.646;-9.154;2022-08-19T04:11:11;13.93;;;6.70;;
4638;SDS011;2332;38.646;-9.154;2022-08-19T04:13:38;27.57;;;7.03;;
4638;SDS011;2332;38.646;-9.154;2022-08-19T04:16:05;11.93;;;6.10;;
4638;SDS011;2332;38.646;-9.154;2022-08-19T04:18:31;12.60;;;6.57;;
4638;SDS011;2332;38.646;-9.154;2022-08-19T04:20:58;12.27;;;6.80;;
4638;SDS011;2332;38.646;-9.154;2022-08-19T04:23:24;18.27;;;6.60;;
4638;SDS011;2332;38.646;-9.154;2022-08-19T04:25:52;12.00;;;6.50;;
4638;SDS011;2332;38.646;-9.154;2022-08-19T04:28:17;16.87;;;6.50;;
4638;SDS011;2332;38.646;-9.154;2022-08-19T04:30:44;20.07;;;6.80;;
4638;SDS011;2332;38.646;-9.154;2022-08-19T04:33:12;17.33;;;6.87;;
4638;SDS011;2332;38.646;-9.154;2022-08-19T04:35:40;15.60;;;7.07;;
4638;SDS011;2332;38.646;-9.154;2022-08-19T04:38:07;17.03;;;7.10;;
4638;SDS011;2332;38.646;-9.154;2022-08-19T04:40:33;17.83;;;7.53;;
4638;SDS011;2332;38.646;-9.154;2022-08-19T04:43:18;18.30;;;7.50;;
4638;SDS011;2332;38.646;-9.154;2022-08-19T04:45:44;20.83;;;7.73;;
4638;SDS011;2332;38.646;-9.154;2022-08-19T04:48:11;19.50;;;7.90;;
4638;SDS011;2332;38.646;-9.154;2022-08-19T04:50:39;15.07;;;8.03;;
4638;SDS011;2332;38.646;-9.154;2022-08-19T04:53:06;16.33;;;7.70;;
4638;SDS011;2332;38.646;-9.154;2022-08-19T04:55:32;15.80;;;7.70;;
4638;SDS011;2332;38.646;-9.154;2022-08-19T04:57:58;17.30;;;8.50;;
4638;SDS011;2332;38.646;-9.154;2022-08-19T05:00:24;16.90;;;7.57;;
4638;SDS011;2332;38.646;-9.154;2022-08-19T05:02:50;13.50;;;8.20;;
4638;SDS011;2332;38.646;-9.154;2022-08-19T05:05:16;21.77;;;8.50;;
4638;SDS011;2332;38.646;-9.154;2022-08-19T05:07:41;18.83;;;8.13;;
4638;SDS011;2332;38.646;-9.154;2022-08-19T05:10:07;13.53;;;8.17;;
4638;SDS011;2332;38.646;-9.154;2022-08-19T05:12:33;17.37;;;7.87;;
4638;SDS011;2332;38.646;-9.154;2022-08-19T05:14:59;13.83;;;7.97;;
4638;SDS011;2332;38.646;-9.154;2022-08-19T05:17:26;14.77;;;8.73;;
4638;SDS011;2332;38.646;-9.154;2022-08-19T05:19:52;16.40;;;7.33;;
4638;SDS011;2332;38.646;-9.154;2022-08-19T05:22:35;13.33;;;7.57;;
4638;SDS011;2332;38.646;-9.154;2022-08-19T05:25:03;16.80;;;8.20;;
4638;SDS011;2332;38.646;-9.154;2022-08-19T05:27:31;12.77;;;7.90;;
4638;SDS011;2332;38.646;-9.154;2022-08-19T05:29:57;18.17;;;8.27;;
4638;SDS011;2332;38.646;-9.154;2022-08-19T05:32:22;16.83;;;8.20;;
4638;SDS011;2332;38.646;-9.154;2022-08-19T05:34:48;15.73;;;7.20;;
4638;SDS011;2332;38.646;-9.154;2022-08-19T05:37:14;16.07;;;7.63;;
4638;SDS011;2332;38.646;-9.154;2022-08-19T05:39:40;16.07;;;7.90;;
4638;SDS011;2332;38.646;-9.154;2022-08-19T05:42:09;17.17;;;8.47;;
4638;SDS011;2332;38.646;-9.154;2022-08-19T05:44:36;19.33;;;7.50;;
4638;SDS011;2332;38.646;-9.154;2022-08-19T05:47:05;12.07;;;7.00;;
4638;SDS011;2332;38.646;-9.154;2022-08-19T05:49:34;16.43;;;7.10;;
4638;SDS011;2332;38.646;-9.154;2022-08-19T05:52:05;16.20;;;7.67;;
4638;SDS011;2332;38.646;-9.154;2022-08-19T05:54:32;22.60;;;7.87;;
4638;SDS011;2332;38.646;-9.154;2022-08-19T05:56:58;16.20;;;7.50;;
4638;SDS011;2332;38.646;-9.154;2022-08-19T05:59:23;19.77;;;7.00;;
4638;SDS011;2332;38.646;-9.154;2022-08-19T06:01:50;15.53;;;7.30;;
4638;SDS011;2332;38.646;-9.154;2022-08-19T06:04:17;11.57;;;6.90;;
4638;SDS011;2332;38.646;-9.154;2022-08-19T06:06:45;11.37;;;6.97;;
4638;SDS011;2332;38.646;-9.154;2022-08-19T06:09:11;27.87;;;6.70;;
4638;SDS011;2332;38.646;-9.154;2022-08-19T06:11:44;14.83;;;6.23;;
4638;SDS011;2332;38.646;-9.154;2022-08-19T06:14:14;15.60;;;6.57;;
4638;SDS011;2332;38.646;-9.154;2022-08-19T06:16:42;18.17;;;6.57;;
4638;SDS011;2332;38.646;-9.154;2022-08-19T06:19:09;14.03;;;6.60;;
4638;SDS011;2332;38.646;-9.154;2022-08-19T06:21:38;15.90;;;6.73;;
4638;SDS011;2332;38.646;-9.154;2022-08-19T06:24:05;9.50;;;6.90;;
4638;SDS011;2332;38.646;-9.154;2022-08-19T06:26:33;12.70;;;5.70;;
4638;SDS011;2332;38.646;-9.154;2022-08-19T06:29:00;13.83;;;6.33;;
4638;SDS011;2332;38.646;-9.154;2022-08-19T06:31:27;7.70;;;5.70;;
4638;SDS011;2332;38.646;-9.154;2022-08-19T06:33:56;8.77;;;5.93;;
4638;SDS011;2332;38.646;-9.154;2022-08-19T06:38:52;11.03;;;5.57;;
4638;SDS011;2332;38.646;-9.154;2022-08-19T06:41:18;8.00;;;4.93;;
4638;SDS011;2332;38.646;-9.154;2022-08-19T06:43:43;16.20;;;6.73;;
4638;SDS011;2332;38.646;-9.154;2022-08-19T06:46:10;8.27;;;5.13;;
4638;SDS011;2332;38.646;-9.154;2022-08-19T06:48:37;7.63;;;5.30;;
4638;SDS011;2332;38.646;-9.154;2022-08-19T06:51:03;15.33;;;5.73;;
4638;SDS011;2332;38.646;-9.154;2022-08-19T06:53:31;10.60;;;5.00;;
4638;SDS011;2332;38.646;-9.154;2022-08-19T06:55:56;7.30;;;4.80;;
4638;SDS011;2332;38.646;-9.154;2022-08-19T06:58:30;12.07;;;5.13;;
4638;SDS011;2332;38.646;-9.154;2022-08-19T07:01:03;16.60;;;5.20;;
4638;SDS011;2332;38.646;-9.154;2022-08-19T07:03:30;9.60;;;4.27;;
4638;SDS011;2332;38.646;-9.154;2022-08-19T07:05:56;10.97;;;4.77;;
4638;SDS011;2332;38.646;-9.154;2022-08-19T07:08:22;8.70;;;4.47;;
4638;SDS011;2332;38.646;-9.154;2022-08-19T07:10:49;6.00;;;4.30;;
4638;SDS011;2332;38.646;-9.154;2022-08-19T07:13:14;19.50;;;5.47;;
4638;SDS011;2332;38.646;-9.154;2022-08-19T07:15:40;11.27;;;4.80;;
4638;SDS011;2332;38.646;-9.154;2022-08-19T07:18:06;13.60;;;4.43;;
4638;SDS011;2332;38.646;-9.154;2022-08-19T07:20:31;14.70;;;5.00;;
4638;SDS011;2332;38.646;-9.154;2022-08-19T07:22:57;7.30;;;4.47;;
4638;SDS011;2332;38.646;-9.154;2022-08-19T07:25:23;4.90;;;4.23;;
4638;SDS011;2332;38.646;-9.154;2022-08-19T07:27:49;9.60;;;4.73;;
4638;SDS011;2332;38.646;-9.154;2022-08-19T07:30:15;7.07;;;4.30;;
4638;SDS011;2332;38.646;-9.154;2022-08-19T07:32:42;8.20;;;4.90;;
4638;SDS011;2332;38.646;-9.154;2022-08-19T07:35:08;8.63;;;4.67;;
4638;SDS011;2332;38.646;-9.154;2022-08-19T07:37:34;8.33;;;5.60;;
4638;SDS011;2332;38.646;-9.154;2022-08-19T07:40:03;9.60;;;5.27;;
4638;SDS011;2332;38.646;-9.154;2022-08-19T07:42:30;9.00;;;4.27;;
4638;SDS011;2332;38.646;-9.154;2022-08-19T07:44:55;9.83;;;4.23;;
4638;SDS011;2332;38.646;-9.154;2022-08-19T07:47:21;7.67;;;3.93;;
4638;SDS011;2332;38.646;-9.154;2022-08-19T07:49:47;5.80;;;3.80;;
4638;SDS011;2332;38.646;-9.154;2022-08-19T07:52:13;6.97;;;4.00;;
4638;SDS011;2332;38.646;-9.154;2022-08-19T07:54:39;6.73;;;3.23;;
4638;SDS011;2332;38.646;-9.154;2022-08-19T07:57:06;8.87;;;4.40;;
4638;SDS011;2332;38.646;-9.154;2022-08-19T07:59:32;6.00;;;3.83;;
4638;SDS011;2332;38.646;-9.154;2022-08-19T08:01:58;13.83;;;3.70;;
4638;SDS011;2332;38.646;-9.154;2022-08-19T08:04:25;4.30;;;3.10;;
4638;SDS011;2332;38.646;-9.154;2022-08-19T08:07:10;3.50;;;2.80;;
4638;SDS011;2332;38.646;-9.154;2022-08-19T08:09:54;5.13;;;3.23;;
4638;SDS011;2332;38.646;-9.154;2022-08-19T08:12:21;10.50;;;2.90;;
4638;SDS011;2332;38.646;-9.154;2022-08-19T08:14:51;3.67;;;2.90;;
4638;SDS011;2332;38.646;-9.154;2022-08-19T08:17:19;5.97;;;3.10;;
4638;SDS011;2332;38.646;-9.154;2022-08-19T08:19:46;10.13;;;3.40;;
4638;SDS011;2332;38.646;-9.154;2022-08-19T08:22:14;11.80;;;3.10;;
4638;SDS011;2332;38.646;-9.154;2022-08-19T08:25:09;8.00;;;2.93;;
4638;SDS011;2332;38.646;-9.154;2022-08-19T08:27:40;7.63;;;2.80;;
4638;SDS011;2332;38.646;-9.154;2022-08-19T08:30:08;8.10;;;2.73;;
4638;SDS011;2332;38.646;-9.154;2022-08-19T08:32:36;4.30;;;2.43;;
4638;SDS011;2332;38.646;-9.154;2022-08-19T08:35:06;3.37;;;2.10;;
4638;SDS011;2332;38.646;-9.154;2022-08-19T08:37:34;2.57;;;2.37;;
4638;SDS011;2332;38.646;-9.154;2022-08-19T08:40:39;4.10;;;2.60;;
4638;SDS011;2332;38.646;-9.154;2022-08-19T08:42:55;8.90;;;3.20;;
4638;SDS011;2332;38.646;-9.154;2022-08-19T08:45:30;7.33;;;2.50;;
4638;SDS011;2332;38.646;-9.154;2022-08-19T08:47:56;3.03;;;2.10;;
4638;SDS011;2332;38.646;-9.154;2022-08-19T08:50:27;2.80;;;2.50;;
4638;SDS011;2332;38.646;-9.154;2022-08-19T08:53:00;13.23;;;2.87;;
4638;SDS011;2332;38.646;-9.154;2022-08-19T08:55:29;9.13;;;2.70;;
4638;SDS011;2332;38.646;-9.154;2022-08-19T08:58:03;8.83;;;2.33;;
4638;SDS011;2332;38.646;-9.154;2022-08-19T09:00:32;2.40;;;2.30;;
4638;SDS011;2332;38.646;-9.154;2022-08-19T09:03:00;6.90;;;2.20;;
4638;SDS011;2332;38.646;-9.154;2022-08-19T09:05:34;6.87;;;2.27;;
4638;SDS011;2332;38.646;-9.154;2022-08-19T09:08:16;6.00;;;2.53;;
4638;SDS011;2332;38.646;-9.154;2022-08-19T09:10:53;8.33;;;2.67;;
4638;SDS011;2332;38.646;-9.154;2022-08-19T09:16:09;6.63;;;2.20;;
4638;SDS011;2332;38.646;-9.154;2022-08-19T09:18:48;5.30;;;2.53;;
4638;SDS011;2332;38.646;-9.154;2022-08-19T09:21:19;3.03;;;2.00;;
4638;SDS011;2332;38.646;-9.154;2022-08-19T09:23:46;3.33;;;2.50;;
4638;SDS011;2332;38.646;-9.154;2022-08-19T09:26:13;3.37;;;2.40;;
4638;SDS011;2332;38.646;-9.154;2022-08-19T09:28:44;9.50;;;2.50;;
4638;SDS011;2332;38.646;-9.154;2022-08-19T09:31:22;4.93;;;2.27;;
4638;SDS011;2332;38.646;-9.154;2022-08-19T09:33:49;6.43;;;2.53;;
4638;SDS011;2332;38.646;-9.154;2022-08-19T09:36:17;7.13;;;2.23;;
4638;SDS011;2332;38.646;-9.154;2022-08-19T09:38:45;7.83;;;2.50;;
4638;SDS011;2332;38.646;-9.154;2022-08-19T09:41:12;10.80;;;2.50;;
4638;SDS011;2332;38.646;-9.154;2022-08-19T09:43:41;8.10;;;2.50;;
4638;SDS011;2332;38.646;-9.154;2022-08-19T09:46:08;10.33;;;2.50;;
4638;SDS011;2332;38.646;-9.154;2022-08-19T09:48:37;10.03;;;2.33;;
4638;SDS011;2332;38.646;-9.154;2022-08-19T09:51:04;5.87;;;2.50;;
4638;SDS011;2332;38.646;-9.154;2022-08-19T09:53:33;5.20;;;2.50;;
4638;SDS011;2332;38.646;-9.154;2022-08-19T09:55:59;12.33;;;3.43;;
4638;SDS011;2332;38.646;-9.154;2022-08-19T09:58:24;12.60;;;3.30;;
4638;SDS011;2332;38.646;-9.154;2022-08-19T10:00:53;13.33;;;2.70;;
4638;SDS011;2332;38.646;-9.154;2022-08-19T10:03:19;9.77;;;2.87;;
4638;SDS011;2332;38.646;-9.154;2022-08-19T10:05:45;11.90;;;2.83;;
4638;SDS011;2332;38.646;-9.154;2022-08-19T10:08:14;13.00;;;3.20;;
4638;SDS011;2332;38.646;-9.154;2022-08-19T10:10:46;5.00;;;2.53;;
4638;SDS011;2332;38.646;-9.154;2022-08-19T10:13:13;8.30;;;2.80;;
4638;SDS011;2332;38.646;-9.154;2022-08-19T10:15:40;12.53;;;2.70;;
4638;SDS011;2332;38.646;-9.154;2022-08-19T10:18:06;10.57;;;3.20;;
4638;SDS011;2332;38.646;-9.154;2022-08-19T10:20:32;4.93;;;2.40;;
4638;SDS011;2332;38.646;-9.154;2022-08-19T10:23:00;5.90;;;2.73;;
4638;SDS011;2332;38.646;-9.154;2022-08-19T10:25:26;9.33;;;2.80;;
4638;SDS011;2332;38.646;-9.154;2022-08-19T10:27:52;10.40;;;2.77;;
4638;SDS011;2332;38.646;-9.154;2022-08-19T10:30:18;12.77;;;2.80;;
4638;SDS011;2332;38.646;-9.154;2022-08-19T10:32:45;10.13;;;2.53;;
4638;SDS011;2332;38.646;-9.154;2022-08-19T10:35:11;11.70;;;2.90;;
4638;SDS011;2332;38.646;-9.154;2022-08-19T10:37:38;12.47;;;2.87;;
4638;SDS011;2332;38.646;-9.154;2022-08-19T10:40:07;7.27;;;3.20;;
4638;SDS011;2332;38.646;-9.154;2022-08-19T10:42:35;7.20;;;2.67;;
4638;SDS011;2332;38.646;-9.154;2022-08-19T10:45:01;8.03;;;2.30;;
4638;SDS011;2332;38.646;-9.154;2022-08-19T10:47:27;9.80;;;2.43;;
4638;SDS011;2332;38.646;-9.154;2022-08-19T10:49:53;10.30;;;2.80;;
4638;SDS011;2332;38.646;-9.154;2022-08-19T10:52:41;9.53;;;2.60;;
4638;SDS011;2332;38.646;-9.154;2022-08-19T10:55:08;14.63;;;3.07;;
4638;SDS011;2332;38.646;-9.154;2022-08-19T10:57:53;5.73;;;2.23;;
4638;SDS011;2332;38.646;-9.154;2022-08-19T11:00:19;12.80;;;2.77;;
4638;SDS011;2332;38.646;-9.154;2022-08-19T11:02:45;7.23;;;2.43;;
4638;SDS011;2332;38.646;-9.154;2022-08-19T11:05:11;7.83;;;2.73;;
4638;SDS011;2332;38.646;-9.154;2022-08-19T11:07:38;8.47;;;2.67;;
4638;SDS011;2332;38.646;-9.154;2022-08-19T11:10:05;9.70;;;2.50;;
4638;SDS011;2332;38.646;-9.154;2022-08-19T11:12:31;2.33;;;2.13;;
4638;SDS011;2332;38.646;-9.154;2022-08-19T11:14:58;6.20;;;2.13;;
4638;SDS011;2332;38.646;-9.154;2022-08-19T11:17:23;4.53;;;2.50;;
4638;SDS011;2332;38.646;-9.154;2022-08-19T11:19:49;5.00;;;2.50;;
4638;SDS011;2332;38.646;-9.154;2022-08-19T11:22:15;9.43;;;2.60;;
4638;SDS011;2332;38.646;-9.154;2022-08-19T11:24:42;2.73;;;2.50;;
4638;SDS011;2332;38.646;-9.154;2022-08-19T11:27:09;5.20;;;2.00;;
4638;SDS011;2332;38.646;-9.154;2022-08-19T11:29:36;2.40;;;2.20;;
4638;SDS011;2332;38.646;-9.154;2022-08-19T11:32:07;4.63;;;2.50;;
4638;SDS011;2332;38.646;-9.154;2022-08-19T11:34:34;5.43;;;2.50;;
4638;SDS011;2332;38.646;-9.154;2022-08-19T11:37:00;7.07;;;2.53;;
4638;SDS011;2332;38.646;-9.154;2022-08-19T11:39:29;3.83;;;2.10;;
4638;SDS011;2332;38.646;-9.154;2022-08-19T11:41:57;3.57;;;2.00;;
4638;SDS011;2332;38.646;-9.154;2022-08-19T11:44:23;6.17;;;2.70;;
4638;SDS011;2332;38.646;-9.154;2022-08-19T11:46:49;9.77;;;2.47;;
4638;SDS011;2332;38.646;-9.154;2022-08-19T11:49:18;1.87;;;1.50;;
4638;SDS011;2332;38.646;-9.154;2022-08-19T11:51:45;11.27;;;2.13;;
4638;SDS011;2332;38.646;-9.154;2022-08-19T11:54:12;7.43;;;2.30;;
4638;SDS011;2332;38.646;-9.154;2022-08-19T11:56:39;6.30;;;2.30;;
4638;SDS011;2332;38.646;-9.154;2022-08-19T11:59:06;3.13;;;1.80;;
4638;SDS011;2332;38.646;-9.154;2022-08-19T12:01:32;6.47;;;1.97;;
4638;SDS011;2332;38.646;-9.154;2022-08-19T12:03:58;4.20;;;1.87;;
4638;SDS011;2332;38.646;-9.154;2022-08-19T12:06:26;7.80;;;1.90;;
4638;SDS011;2332;38.646;-9.154;2022-08-19T12:08:57;4.93;;;1.90;;
4638;SDS011;2332;38.646;-9.154;2022-08-19T12:11:25;8.93;;;2.00;;
4638;SDS011;2332;38.646;-9.154;2022-08-19T12:13:51;2.70;;;1.97;;
4638;SDS011;2332;38.646;-9.154;2022-08-19T12:16:18;2.63;;;2.07;;
4638;SDS011;2332;38.646;-9.154;2022-08-19T12:18:48;2.67;;;1.40;;
4638;SDS011;2332;38.646;-9.154;2022-08-19T12:21:17;3.20;;;1.60;;
4638;SDS011;2332;38.646;-9.154;2022-08-19T12:23:46;4.90;;;2.10;;
4638;SDS011;2332;38.646;-9.154;2022-08-19T12:26:13;6.07;;;1.63;;
4638;SDS011;2332;38.646;-9.154;2022-08-19T12:28:39;10.43;;;2.47;;
4638;SDS011;2332;38.646;-9.154;2022-08-19T12:31:05;2.67;;;1.60;;
4638;SDS011;2332;38.646;-9.154;2022-08-19T12:33:31;3.60;;;1.67;;
4638;SDS011;2332;38.646;-9.154;2022-08-19T12:36:00;6.27;;;2.03;;
4638;SDS011;2332;38.646;-9.154;2022-08-19T12:38:29;3.93;;;1.23;;
4638;SDS011;2332;38.646;-9.154;2022-08-19T12:40:54;2.33;;;1.80;;
4638;SDS011;2332;38.646;-9.154;2022-08-19T12:43:20;6.37;;;1.60;;
4638;SDS011;2332;38.646;-9.154;2022-08-19T12:45:46;3.10;;;1.60;;
4638;SDS011;2332;38.646;-9.154;2022-08-19T12:48:12;4.13;;;2.07;;
4638;SDS011;2332;38.646;-9.154;2022-08-19T12:50:42;2.90;;;1.37;;
4638;SDS011;2332;38.646;-9.154;2022-08-19T12:53:10;1.53;;;1.40;;
4638;SDS011;2332;38.646;-9.154;2022-08-19T12:55:36;4.50;;;1.33;;
4638;SDS011;2332;38.646;-9.154;2022-08-19T12:58:02;1.43;;;1.33;;
4638;SDS011;2332;38.646;-9.154;2022-08-19T13:00:28;2.10;;;1.60;;
4638;SDS011;2332;38.646;-9.154;2022-08-19T13:02:55;3.93;;;1.50;;
4638;SDS011;2332;38.646;-9.154;2022-08-19T13:05:26;1.87;;;1.40;;
4638;SDS011;2332;38.646;-9.154;2022-08-19T13:07:55;5.27;;;1.63;;
4638;SDS011;2332;38.646;-9.154;2022-08-19T13:10:22;2.27;;;1.10;;
4638;SDS011;2332;38.646;-9.154;2022-08-19T13:12:50;1.00;;;1.00;;
4638;SDS011;2332;38.646;-9.154;2022-08-19T13:15:17;1.20;;;1.10;;
4638;SDS011;2332;38.646;-9.154;2022-08-19T13:17:46;2.30;;;1.10;;
4638;SDS011;2332;38.646;-9.154;2022-08-19T13:20:16;2.70;;;1.03;;
4638;SDS011;2332;38.646;-9.154;2022-08-19T13:22:44;3.27;;;1.10;;
4638;SDS011;2332;38.646;-9.154;2022-08-19T13:25:10;3.40;;;0.90;;
4638;SDS011;2332;38.646;-9.154;2022-08-19T13:27:37;2.33;;;1.10;;
4638;SDS011;2332;38.646;-9.154;2022-08-19T13:30:03;3.90;;;1.33;;
4638;SDS011;2332;38.646;-9.154;2022-08-19T13:32:49;2.73;;;1.00;;
4638;SDS011;2332;38.646;-9.154;2022-08-19T13:35:33;3.07;;;0.90;;
4638;SDS011;2332;38.646;-9.154;2022-08-19T13:37:59;1.70;;;1.07;;
4638;SDS011;2332;38.646;-9.154;2022-08-19T13:40:25;4.63;;;1.17;;
4638;SDS011;2332;38.646;-9.154;2022-08-19T13:42:52;5.60;;;1.07;;
4638;SDS011;2332;38.646;-9.154;2022-08-19T13:45:20;3.97;;;1.00;;
4638;SDS011;2332;38.646;-9.154;2022-08-19T13:47:48;2.30;;;1.60;;
4638;SDS011;2332;38.646;-9.154;2022-08-19T13:50:16;1.67;;;1.10;;
4638;SDS011;2332;38.646;-9.154;2022-08-19T13:52:43;5.17;;;1.23;;
4638;SDS011;2332;38.646;-9.154;2022-08-19T13:55:10;2.50;;;1.10;;
4638;SDS011;2332;38.646;-9.154;2022-08-19T13:57:36;2.67;;;1.10;;
4638;SDS011;2332;38.646;-9.154;2022-08-19T14:00:04;4.53;;;1.40;;
4638;SDS011;2332;38.646;-9.154;2022-08-19T14:02:35;2.20;;;1.20;;
4638;SDS011;2332;38.646;-9.154;2022-08-19T14:05:03;4.30;;;1.33;;
4638;SDS011;2332;38.646;-9.154;2022-08-19T14:07:29;4.30;;;1.40;;
4638;SDS011;2332;38.646;-9.154;2022-08-19T14:09:55;12.47;;;2.47;;
4638;SDS011;2332;38.646;-9.154;2022-08-19T14:12:21;3.20;;;2.23;;
4638;SDS011;2332;38.646;-9.154;2022-08-19T14:14:47;5.40;;;2.87;;
4638;SDS011;2332;38.646;-9.154;2022-08-19T14:17:12;9.93;;;2.80;;
4638;SDS011;2332;38.646;-9.154;2022-08-19T14:19:38;12.20;;;3.00;;
4638;SDS011;2332;38.646;-9.154;2022-08-19T14:22:03;9.67;;;2.63;;
4638;SDS011;2332;38.646;-9.154;2022-08-19T14:24:30;12.23;;;2.20;;
4638;SDS011;2332;38.646;-9.154;2022-08-19T14:26:57;6.50;;;2.37;;
4638;SDS011;2332;38.646;-9.154;2022-08-19T14:29:23;15.03;;;2.20;;
4638;SDS011;2332;38.646;-9.154;2022-08-19T14:31:49;4.40;;;2.23;;
4638;SDS011;2332;38.646;-9.154;2022-08-19T14:34:14;12.17;;;2.37;;
4638;SDS011;2332;38.646;-9.154;2022-08-19T14:36:40;11.33;;;2.27;;
4638;SDS011;2332;38.646;-9.154;2022-08-19T14:39:07;7.03;;;2.40;;
4638;SDS011;2332;38.646;-9.154;2022-08-19T14:41:34;10.27;;;2.70;;
4638;SDS011;2332;38.646;-9.154;2022-08-19T14:44:00;23.77;;;2.70;;
4638;SDS011;2332;38.646;-9.154;2022-08-19T14:46:27;9.87;;;2.60;;
4638;SDS011;2332;38.646;-9.154;2022-08-19T14:48:53;3.47;;;2.30;;
4638;SDS011;2332;38.646;-9.154;2022-08-19T14:51:20;5.67;;;2.37;;
4638;SDS011;2332;38.646;-9.154;2022-08-19T14:53:49;10.30;;;2.40;;
4638;SDS011;2332;38.646;-9.154;2022-08-19T14:56:16;3.50;;;2.27;;
4638;SDS011;2332;38.646;-9.154;2022-08-19T14:58:43;7.57;;;2.50;;
4638;SDS011;2332;38.646;-9.154;2022-08-19T15:01:10;3.53;;;2.00;;
4638;SDS011;2332;38.646;-9.154;2022-08-19T15:03:36;9.73;;;2.43;;
4638;SDS011;2332;38.646;-9.154;2022-08-19T15:06:03;8.13;;;1.90;;